Time;durP1;ratioP1;P1;durP2;ratioP2;P2;SDS_P1;SDS_P2;PMS_P1;PMS_P2;Temp;Humidity;BMP_temperature;BMP_pressure;BME280_temperature;BME280_humidity;BME280_pressure;Samples;Min_cycle;Max_cycle;Signal;HPM_P1;HPM_P2
2021/01/21 00:01:26;;;;;;;17.63;14.10;;;2.70;68.30;;;;;;5051626;28;20449;-76
2021/01/21 00:03:57;;;;;;;15.53;13.93;;;2.70;68.40;;;;;;5052602;28;20835;-81
2021/01/21 00:06:23;;;;;;;16.17;13.87;;;2.80;68.40;;;;;;5051594;28;20487;-76
2021/01/21 00:08:51;;;;;;;14.47;12.90;;;2.80;68.50;;;;;;5048166;28;20443;-79
2021/01/21 00:11:18;;;;;;;15.03;13.47;;;2.80;68.40;;;;;;5045690;28;20552;-77
2021/01/21 00:13:44;;;;;;;16.27;13.77;;;2.90;68.30;;;;;;5051314;28;20527;-77
2021/01/21 00:16:12;;;;;;;15.90;13.80;;;2.90;68.30;;;;;;5042928;28;20453;-81
2021/01/21 00:18:39;;;;;;;16.80;13.00;;;2.90;68.30;;;;;;5050027;28;20452;-77
2021/01/21 00:21:06;;;;;;;15.73;13.40;;;3.00;68.30;;;;;;5050853;28;20486;-77
2021/01/21 00:23:32;;;;;;;16.37;13.93;;;3.00;68.40;;;;;;5049316;28;20487;-77
2021/01/21 00:25:59;;;;;;;14.40;12.90;;;3.00;68.30;;;;;;5047611;28;20636;-77
2021/01/21 00:28:25;;;;;;;14.17;12.73;;;3.10;67.90;;;;;;5048448;28;20511;-78
2021/01/21 00:30:52;;;;;;;13.83;12.43;;;3.10;67.80;;;;;;5048738;28;20475;-78
2021/01/21 00:33:19;;;;;;;13.90;11.93;;;3.10;67.70;;;;;;5050094;28;20546;-77
2021/01/21 00:35:45;;;;;;;15.50;12.50;;;3.10;67.60;;;;;;5044195;28;20443;-81
2021/01/21 00:38:13;;;;;;;13.40;11.70;;;3.10;67.30;;;;;;5047189;28;20781;-77
2021/01/21 00:40:39;;;;;;;14.40;12.90;;;3.10;67.00;;;;;;5049503;28;20498;-76
2021/01/21 00:43:05;;;;;;;17.27;12.57;;;3.20;67.30;;;;;;5050716;28;20472;-77
2021/01/21 00:45:32;;;;;;;15.33;12.57;;;3.20;67.40;;;;;;5048355;28;20526;-79
2021/01/21 00:47:58;;;;;;;14.43;12.13;;;3.20;67.10;;;;;;5042075;28;20804;-79
2021/01/21 00:50:25;;;;;;;13.30;11.97;;;3.20;66.90;;;;;;5044008;28;20492;-77
2021/01/21 00:52:51;;;;;;;20.20;12.70;;;3.10;66.90;;;;;;5056542;28;20514;-80
2021/01/21 00:55:19;;;;;;;12.90;11.40;;;3.10;66.90;;;;;;5069547;28;20452;-78
2021/01/21 00:57:45;;;;;;;15.33;12.40;;;3.00;66.60;;;;;;5055577;28;20452;-77
2021/01/21 01:00:12;;;;;;;13.20;11.80;;;3.10;66.50;;;;;;5054263;28;20483;-80
2021/01/21 01:02:39;;;;;;;14.63;12.07;;;3.10;66.80;;;;;;5048876;28;20460;-77
2021/01/21 01:05:07;;;;;;;13.43;11.83;;;3.00;66.80;;;;;;5047907;28;20503;-78
2021/01/21 01:07:34;;;;;;;13.20;11.90;;;3.00;66.60;;;;;;5051400;28;20459;-77
2021/01/21 01:10:00;;;;;;;14.60;12.47;;;3.10;66.30;;;;;;5046452;28;20458;-82
2021/01/21 01:12:33;;;;;;;11.83;10.67;;;3.10;66.10;;;;;;5048488;28;20521;-79
2021/01/21 01:15:00;;;;;;;12.87;11.53;;;3.20;65.90;;;;;;5040342;28;20488;-80
2021/01/21 01:17:26;;;;;;;14.13;12.23;;;3.20;65.80;;;;;;5047262;28;20492;-77
2021/01/21 01:19:53;;;;;;;12.67;10.97;;;3.20;65.90;;;;;;5047650;28;21026;-80
2021/01/21 01:22:19;;;;;;;14.47;11.23;;;3.30;66.10;;;;;;5044026;28;21000;-77
2021/01/21 01:24:45;;;;;;;12.40;10.83;;;3.30;65.90;;;;;;5048167;28;20496;-77
2021/01/21 01:27:15;;;;;;;16.00;12.13;;;3.30;66.10;;;;;;5047754;28;20457;-82
2021/01/21 01:29:44;;;;;;;13.90;11.53;;;3.30;65.60;;;;;;5046043;28;20452;-79
2021/01/21 01:32:11;;;;;;;11.63;10.43;;;3.30;65.50;;;;;;5043123;28;20468;-79
2021/01/21 01:34:37;;;;;;;14.57;12.90;;;3.30;65.40;;;;;;5045977;28;21001;-80
2021/01/21 01:37:06;;;;;;;13.27;11.80;;;3.20;65.30;;;;;;5047407;28;20506;-79
2021/01/21 01:39:34;;;;;;;14.90;11.70;;;3.30;65.60;;;;;;5047441;28;20506;-81
2021/01/21 01:42:07;;;;;;;13.97;11.93;;;3.30;65.50;;;;;;5049680;28;20456;-82
2021/01/21 01:44:33;;;;;;;14.40;12.90;;;3.30;65.40;;;;;;5044164;28;20518;-77
2021/01/21 01:47:01;;;;;;;12.67;11.33;;;3.30;65.10;;;;;;5046038;28;20484;-80
2021/01/21 01:49:27;;;;;;;13.27;11.50;;;3.30;65.40;;;;;;5044706;28;20783;-77
2021/01/21 01:51:54;;;;;;;13.50;11.97;;;3.30;65.50;;;;;;5046739;28;20554;-79
2021/01/21 01:54:24;;;;;;;13.90;11.87;;;3.30;65.60;;;;;;5049415;28;20448;-77
2021/01/21 01:56:52;;;;;;;15.47;12.57;;;3.20;65.40;;;;;;5045000;28;20465;-78
2021/01/21 01:59:19;;;;;;;14.40;11.80;;;3.10;65.30;;;;;;5044047;28;20510;-80
2021/01/21 02:01:47;;;;;;;15.13;12.43;;;3.10;65.70;;;;;;5045935;28;20448;-77
2021/01/21 02:04:15;;;;;;;13.23;11.60;;;3.00;65.40;;;;;;5046227;28;20483;-77
2021/01/21 02:06:41;;;;;;;13.30;11.90;;;3.10;65.80;;;;;;5049302;28;20447;-78
2021/01/21 02:09:08;;;;;;;18.50;14.00;;;2.90;65.80;;;;;;5051035;28;20455;-78
2021/01/21 02:11:50;;;;;;;14.13;12.30;;;2.90;66.00;;;;;;5049905;28;20521;-79
2021/01/21 02:14:23;;;;;;;14.03;12.10;;;2.80;65.90;;;;;;5046199;28;21043;-79
2021/01/21 02:16:57;;;;;;;17.30;13.70;;;2.80;65.80;;;;;;5043391;28;21013;-77
2021/01/21 02:19:55;;;;;;;17.80;13.10;;;2.80;66.10;;;;;;5044171;28;20443;-76
2021/01/21 02:22:59;;;;;;;13.93;12.03;;;2.70;66.10;;;;;;5050379;28;20449;-76
2021/01/21 02:25:30;;;;;;;15.30;11.80;;;2.70;66.00;;;;;;5051549;28;20448;-77
2021/01/21 02:28:41;;;;;;;16.30;12.70;;;2.90;66.00;;;;;;5050110;28;20912;-79
2021/01/21 02:31:25;;;;;;;17.73;12.67;;;2.90;65.90;;;;;;5046467;28;20551;-76
2021/01/21 02:33:55;;;;;;;14.63;12.10;;;3.00;65.80;;;;;;5052743;28;20951;-78
2021/01/21 02:36:26;;;;;;;14.93;12.90;;;3.00;65.70;;;;;;5050430;28;20915;-82
2021/01/21 02:38:54;;;;;;;13.90;12.50;;;3.00;65.60;;;;;;5053549;28;20935;-78
2021/01/21 02:41:20;;;;;;;14.13;12.20;;;3.10;65.50;;;;;;5052629;28;20484;-76
2021/01/21 02:43:52;;;;;;;15.27;12.83;;;3.20;65.30;;;;;;5050601;28;20469;-77
2021/01/21 02:46:20;;;;;;;15.10;12.70;;;3.30;65.30;;;;;;5051541;28;20538;-76
2021/01/21 02:48:46;;;;;;;16.00;11.43;;;3.30;65.10;;;;;;5053667;28;20471;-76
2021/01/21 02:51:22;;;;;;;13.80;12.20;;;3.30;65.10;;;;;;5050473;28;21041;-76
2021/01/21 02:54:10;;;;;;;13.47;12.07;;;3.30;64.60;;;;;;5051855;28;20974;-76
2021/01/21 02:56:45;;;;;;;14.20;12.17;;;3.30;64.40;;;;;;5043460;28;20492;-77
2021/01/21 02:59:15;;;;;;;17.20;11.30;;;3.30;64.20;;;;;;5048648;28;20456;-78
2021/01/21 03:01:43;;;;;;;12.73;10.70;;;3.30;64.20;;;;;;5049804;28;20982;-80
2021/01/21 03:04:10;;;;;;;13.80;12.17;;;3.40;64.00;;;;;;5051618;28;20453;-78
2021/01/21 03:06:40;;;;;;;13.43;12.10;;;3.50;64.10;;;;;;5042899;28;20466;-80
2021/01/21 03:09:07;;;;;;;11.63;10.47;;;3.50;63.80;;;;;;5049403;28;20445;-78
2021/01/21 03:11:34;;;;;;;11.50;10.20;;;3.50;63.60;;;;;;5046019;28;21025;-78
2021/01/21 03:14:00;;;;;;;12.30;11.00;;;3.60;63.60;;;;;;5048241;28;20830;-78
2021/01/21 03:16:27;;;;;;;13.10;10.37;;;3.60;63.40;;;;;;5046973;28;20453;-79
2021/01/21 03:18:53;;;;;;;12.97;11.37;;;3.60;63.30;;;;;;5043345;28;20461;-78
2021/01/21 03:21:20;;;;;;;12.33;11.03;;;3.60;63.20;;;;;;5048241;28;20502;-78
2021/01/21 03:23:48;;;;;;;11.67;10.40;;;3.60;63.20;;;;;;5047734;28;20585;-78
2021/01/21 03:26:17;;;;;;;13.27;9.97;;;3.50;63.20;;;;;;5050645;28;20539;-78
2021/01/21 03:28:43;;;;;;;12.40;10.50;;;3.50;63.00;;;;;;5043298;28;20922;-77
2021/01/21 03:31:09;;;;;;;11.80;9.83;;;3.50;63.10;;;;;;5049894;28;20476;-77
2021/01/21 03:33:36;;;;;;;13.37;10.73;;;3.50;63.40;;;;;;5046949;28;20510;-77
2021/01/21 03:36:03;;;;;;;11.20;10.10;;;3.50;63.20;;;;;;5049545;28;20441;-78
2021/01/21 03:38:29;;;;;;;11.17;10.00;;;3.60;63.20;;;;;;5048733;28;20961;-78
2021/01/21 03:40:56;;;;;;;13.07;10.60;;;3.60;63.10;;;;;;5045492;28;20456;-78
2021/01/21 03:43:23;;;;;;;11.90;10.20;;;3.70;63.00;;;;;;5050801;28;20453;-78
2021/01/21 03:45:50;;;;;;;12.90;9.67;;;3.70;62.90;;;;;;5050394;28;21230;-78
2021/01/21 03:48:17;;;;;;;11.30;9.83;;;3.80;62.80;;;;;;5044053;28;20879;-79
2021/01/21 03:50:44;;;;;;;10.07;8.77;;;3.80;62.80;;;;;;5048902;28;20471;-77
2021/01/21 03:53:11;;;;;;;11.43;9.80;;;3.80;62.60;;;;;;5051179;28;20436;-82
2021/01/21 03:55:37;;;;;;;12.43;9.13;;;3.80;62.20;;;;;;5069022;28;20453;-80
2021/01/21 03:58:05;;;;;;;13.13;9.53;;;3.80;62.30;;;;;;5067739;28;20455;-81
2021/01/21 04:00:31;;;;;;;11.50;9.70;;;3.80;62.20;;;;;;5055150;28;20465;-78
2021/01/21 04:02:57;;;;;;;12.33;9.47;;;3.80;62.60;;;;;;5057664;28;20451;-81
2021/01/21 04:05:24;;;;;;;11.83;9.40;;;3.70;62.30;;;;;;5064061;28;20448;-79
2021/01/21 04:07:50;;;;;;;12.70;9.13;;;3.80;62.00;;;;;;5049668;28;20477;-78
2021/01/21 04:10:17;;;;;;;10.30;9.13;;;3.80;62.10;;;;;;5051412;28;20464;-78
2021/01/21 04:12:43;;;;;;;10.40;9.03;;;3.80;62.20;;;;;;5048105;28;20805;-79
2021/01/21 04:15:11;;;;;;;11.80;9.90;;;3.80;61.70;;;;;;5049258;28;20475;-80
2021/01/21 04:17:38;;;;;;;12.07;9.80;;;3.90;61.60;;;;;;5057656;28;20441;-79
2021/01/21 04:20:05;;;;;;;10.97;9.57;;;3.90;61.80;;;;;;5055575;28;20464;-80
2021/01/21 04:22:32;;;;;;;10.57;8.93;;;3.90;61.30;;;;;;5053342;28;20506;-79
2021/01/21 04:24:58;;;;;;;10.33;8.53;;;3.90;61.60;;;;;;5045988;28;20510;-80
2021/01/21 04:27:24;;;;;;;11.33;8.53;;;4.00;61.50;;;;;;5046729;28;20838;-78
2021/01/21 04:29:51;;;;;;;10.83;9.07;;;4.00;60.90;;;;;;5047695;28;20451;-79
2021/01/21 04:32:18;;;;;;;11.10;9.20;;;4.00;60.60;;;;;;5044508;28;21039;-79
2021/01/21 04:34:44;;;;;;;11.30;8.60;;;4.00;60.90;;;;;;5045861;28;20541;-78
2021/01/21 04:37:11;;;;;;;9.77;8.60;;;4.00;61.00;;;;;;5053556;28;20452;-78
2021/01/21 04:39:41;;;;;;;9.80;8.37;;;4.10;60.70;;;;;;5071387;28;20511;-82
2021/01/21 04:42:07;;;;;;;8.67;7.77;;;4.10;61.00;;;;;;5073708;28;20445;-78
2021/01/21 04:44:34;;;;;;;9.33;8.43;;;4.10;60.80;;;;;;5055945;28;20448;-79
2021/01/21 04:47:01;;;;;;;10.50;8.47;;;4.10;60.30;;;;;;5050610;28;20500;-78
2021/01/21 04:49:29;;;;;;;9.03;8.13;;;4.10;60.70;;;;;;5046366;28;20967;-79
2021/01/21 04:52:03;;;;;;;9.83;8.30;;;4.10;60.50;;;;;;5045873;28;20971;-81
2021/01/21 04:54:37;;;;;;;9.37;8.47;;;4.10;60.30;;;;;;5047055;28;20530;-78
2021/01/21 04:57:06;;;;;;;9.60;7.63;;;4.20;59.80;;;;;;5045479;28;20447;-79
2021/01/21 04:59:36;;;;;;;9.13;8.23;;;4.20;59.80;;;;;;5044186;28;20449;-78
2021/01/21 05:02:04;;;;;;;10.40;7.50;;;4.30;59.90;;;;;;5042836;28;20454;-78
2021/01/21 05:04:32;;;;;;;8.60;7.20;;;4.30;59.60;;;;;;5047847;28;20463;-78
2021/01/21 05:07:00;;;;;;;10.80;8.27;;;4.40;59.90;;;;;;5045123;28;20449;-80
2021/01/21 05:09:27;;;;;;;9.47;7.40;;;4.40;58.90;;;;;;5042651;28;20449;-78
2021/01/21 05:11:55;;;;;;;8.67;6.77;;;4.40;59.00;;;;;;5041398;28;20473;-78
2021/01/21 05:14:21;;;;;;;8.00;7.20;;;4.40;59.30;;;;;;5043823;28;20503;-78
2021/01/21 05:16:48;;;;;;;7.33;6.53;;;4.40;58.90;;;;;;5039301;28;20448;-79
2021/01/21 05:19:15;;;;;;;8.43;6.87;;;4.50;58.70;;;;;;5046272;28;20475;-81
2021/01/21 05:21:44;;;;;;;9.20;7.97;;;4.60;58.70;;;;;;5042472;28;20507;-79
2021/01/21 05:24:12;;;;;;;9.80;6.47;;;4.50;58.90;;;;;;5047091;28;20475;-79
2021/01/21 05:26:39;;;;;;;7.63;6.10;;;4.60;58.70;;;;;;5046800;28;20463;-79
2021/01/21 05:29:06;;;;;;;8.63;7.20;;;4.60;58.60;;;;;;5046530;28;21507;-80
2021/01/21 05:31:36;;;;;;;9.50;7.23;;;4.60;58.70;;;;;;5047894;28;20874;-79
2021/01/21 05:34:05;;;;;;;9.13;7.00;;;4.60;58.30;;;;;;5044133;28;20538;-78
2021/01/21 05:36:36;;;;;;;7.60;6.80;;;4.60;58.20;;;;;;5048945;28;20996;-79
2021/01/21 05:39:07;;;;;;;7.03;6.30;;;4.70;58.30;;;;;;5048584;28;20992;-78
2021/01/21 05:41:34;;;;;;;6.13;5.53;;;4.60;58.10;;;;;;5044604;28;20488;-78
2021/01/21 05:44:02;;;;;;;6.83;6.00;;;4.70;58.30;;;;;;5045885;28;20791;-78
2021/01/21 05:46:28;;;;;;;6.97;6.23;;;4.70;58.20;;;;;;5051140;28;20453;-79
2021/01/21 05:48:55;;;;;;;6.93;6.30;;;4.70;58.30;;;;;;5051359;28;20463;-79
2021/01/21 05:51:23;;;;;;;8.80;5.97;;;4.70;58.30;;;;;;5051765;28;20810;-79
2021/01/21 05:53:49;;;;;;;8.30;6.70;;;4.80;58.10;;;;;;5051967;28;20531;-79
2021/01/21 05:56:18;;;;;;;7.20;6.50;;;4.80;58.10;;;;;;5051140;28;20461;-78
2021/01/21 05:58:46;;;;;;;8.60;6.77;;;4.70;57.70;;;;;;5049197;28;20456;-78
2021/01/21 06:01:14;;;;;;;7.60;6.80;;;4.70;57.70;;;;;;5050133;28;20533;-79
2021/01/21 06:03:41;;;;;;;6.53;5.93;;;4.70;57.90;;;;;;5046635;28;20456;-79
2021/01/21 06:06:14;;;;;;;8.10;6.93;;;4.70;57.90;;;;;;5052222;28;21006;-80
2021/01/21 06:08:42;;;;;;;8.40;6.47;;;4.70;57.90;;;;;;5053831;28;20540;-78
2021/01/21 06:11:11;;;;;;;9.73;6.23;;;4.70;57.80;;;;;;5051579;28;20541;-78
2021/01/21 06:13:38;;;;;;;7.87;7.07;;;4.80;58.00;;;;;;5052987;28;20461;-78
2021/01/21 06:16:07;;;;;;;10.93;6.00;;;4.90;57.90;;;;;;5048654;28;20511;-80
2021/01/21 06:18:33;;;;;;;5.80;5.30;;;4.90;58.30;;;;;;5049466;28;22384;-78
2021/01/21 06:21:01;;;;;;;7.70;5.90;;;5.00;57.60;;;;;;5058787;28;20499;-81
2021/01/21 06:23:30;;;;;;;7.87;5.77;;;5.00;57.40;;;;;;5053627;28;20518;-78
2021/01/21 06:25:58;;;;;;;5.80;5.30;;;5.00;57.00;;;;;;5049928;28;20541;-78
2021/01/21 06:28:26;;;;;;;9.57;5.80;;;5.00;56.90;;;;;;5050701;28;20453;-78
2021/01/21 06:30:57;;;;;;;6.93;6.10;;;5.10;56.90;;;;;;5046600;28;20542;-78
2021/01/21 06:33:29;;;;;;;7.97;6.40;;;5.00;56.70;;;;;;5052905;28;20458;-78
2021/01/21 06:36:02;;;;;;;7.60;6.60;;;5.00;57.20;;;;;;5047725;28;22229;-78
2021/01/21 06:38:34;;;;;;;8.40;5.50;;;5.10;57.00;;;;;;5054794;28;20449;-79
2021/01/21 06:41:04;;;;;;;5.60;4.60;;;5.10;56.90;;;;;;5049287;28;20567;-78
2021/01/21 06:43:35;;;;;;;12.43;5.53;;;5.10;56.90;;;;;;5045138;28;20460;-79
2021/01/21 06:46:03;;;;;;;8.37;4.80;;;5.20;56.80;;;;;;5047084;28;20454;-79
2021/01/21 06:48:30;;;;;;;8.57;4.83;;;5.20;56.40;;;;;;5050526;28;20461;-81
2021/01/21 06:50:57;;;;;;;8.50;4.60;;;5.50;57.90;;;;;;5056972;28;20548;-82
2021/01/21 06:53:26;;;;;;;8.43;6.03;;;5.50;56.10;;;;;;5057713;28;20480;-81
2021/01/21 06:55:56;;;;;;;5.07;4.57;;;5.50;56.30;;;;;;5051179;28;20465;-79
2021/01/21 06:58:53;;;;;;;5.50;4.53;;;5.60;56.50;;;;;;5063250;28;20468;-85
2021/01/21 07:01:51;;;;;;;5.63;4.53;;;5.60;56.40;;;;;;4994837;28;20983;-79
2021/01/21 07:04:25;;;;;;;7.37;4.70;;;5.60;56.00;;;;;;4989636;28;20506;-88
2021/01/21 07:09:49;;;;;;;6.20;4.40;;;5.50;55.90;;;;;;5042909;28;20449;-79
2021/01/21 07:12:20;;;;;;;5.70;4.93;;;5.50;56.10;;;;;;5055721;28;20474;-79
2021/01/21 07:14:48;;;;;;;6.53;4.60;;;5.50;56.00;;;;;;5057172;28;20441;-79
2021/01/21 07:17:17;;;;;;;5.93;4.60;;;5.50;56.50;;;;;;5057532;28;20459;-80
2021/01/21 07:19:50;;;;;;;5.13;4.33;;;5.60;55.90;;;;;;5056578;28;20528;-80
2021/01/21 07:22:22;;;;;;;23.30;5.03;;;5.60;56.20;;;;;;5055942;28;20456;-79
2021/01/21 07:24:55;;;;;;;6.40;3.90;;;5.60;55.70;;;;;;5044162;28;20479;-79
2021/01/21 07:27:25;;;;;;;6.23;4.70;;;5.70;55.90;;;;;;5055398;28;20906;-79
2021/01/21 07:30:15;;;;;;;6.70;4.10;;;5.80;56.00;;;;;;5056643;28;20437;-82
2021/01/21 07:32:44;;;;;;;6.23;4.27;;;5.70;55.40;;;;;;5065770;28;20465;-81
2021/01/21 07:35:36;;;;;;;6.50;4.30;;;5.80;55.60;;;;;;5065410;28;20491;-82
2021/01/21 07:38:06;;;;;;;6.23;4.13;;;5.80;55.70;;;;;;5063001;28;20450;-82
2021/01/21 07:40:44;;;;;;;9.23;4.00;;;5.90;56.00;;;;;;5063888;28;20445;-82
2021/01/21 07:43:15;;;;;;;6.70;4.37;;;5.90;55.30;;;;;;5063148;28;20442;-82
2021/01/21 07:45:44;;;;;;;7.53;4.30;;;5.90;55.20;;;;;;5062180;28;20453;-82
2021/01/21 07:48:23;;;;;;;6.90;4.07;;;6.00;56.30;;;;;;5060512;28;20462;-82
2021/01/21 07:50:52;;;;;;;6.07;4.27;;;6.00;54.90;;;;;;5060158;28;20453;-82
2021/01/21 07:53:23;;;;;;;10.63;4.50;;;6.10;54.80;;;;;;5060279;28;20583;-82
2021/01/21 07:55:51;;;;;;;5.60;3.70;;;6.00;55.00;;;;;;5057388;28;20601;-82
2021/01/21 07:58:35;;;;;;;6.03;4.03;;;6.10;54.80;;;;;;5051368;28;20453;-80
2021/01/21 08:01:06;;;;;;;3.77;3.43;;;6.10;54.60;;;;;;5056054;28;20537;-82
2021/01/21 08:03:36;;;;;;;4.50;3.60;;;6.10;54.80;;;;;;5056414;28;20465;-82
2021/01/21 08:06:14;;;;;;;6.43;4.10;;;6.10;54.70;;;;;;5069186;28;20455;-82
2021/01/21 08:08:43;;;;;;;8.33;4.43;;;6.10;54.50;;;;;;5063892;28;20449;-82
2021/01/21 08:11:12;;;;;;;6.70;4.30;;;6.20;54.40;;;;;;5057431;28;20524;-82
2021/01/21 08:13:42;;;;;;;11.30;4.70;;;6.20;54.30;;;;;;5055085;28;20575;-84
2021/01/21 08:16:13;;;;;;;10.70;7.20;;;6.20;54.40;;;;;;5047190;28;20449;-75
2021/01/21 08:18:42;;;;;;;13.03;4.90;;;6.30;54.50;;;;;;5047162;28;20480;-75
2021/01/21 08:21:27;;;;;;;6.77;4.77;;;6.30;54.20;;;;;;5049644;28;20448;-76
2021/01/21 08:23:55;;;;;;;7.87;4.40;;;6.30;54.10;;;;;;5042932;28;20513;-77
2021/01/21 08:26:22;;;;;;;5.43;4.43;;;6.40;54.00;;;;;;5052587;28;20453;-76
2021/01/21 08:28:49;;;;;;;7.87;4.30;;;6.40;53.80;;;;;;5042545;28;20833;-76
2021/01/21 08:31:16;;;;;;;4.67;4.27;;;6.50;53.90;;;;;;5055298;28;20518;-75
2021/01/21 08:33:49;;;;;;;12.43;4.40;;;6.70;53.70;;;;;;5052638;28;21091;-76
2021/01/21 08:36:16;;;;;;;4.47;4.07;;;6.70;53.60;;;;;;5045936;28;22613;-75
2021/01/21 08:38:48;;;;;;;6.23;3.83;;;6.80;53.10;;;;;;5047679;28;20474;-75
2021/01/21 08:41:16;;;;;;;5.27;3.77;;;6.90;52.80;;;;;;5045977;28;20464;-74
2021/01/21 08:43:43;;;;;;;6.45;3.80;;;7.00;52.80;;;;;;5041991;28;20451;-73
2021/01/21 08:46:14;;;;;;;6.20;4.07;;;7.10;52.50;;;;;;5043998;28;20210;-77
2021/01/21 08:48:41;;;;;;;5.40;3.83;;;7.20;52.40;;;;;;5043178;28;20553;-74
2021/01/21 08:51:34;;;;;;;9.87;3.87;;;7.30;52.20;;;;;;5042858;28;21070;-77
2021/01/21 08:54:17;;;;;;;5.23;3.60;;;7.40;52.00;;;;;;5043165;28;20457;-74
2021/01/21 08:56:43;;;;;;;7.28;3.83;;;7.50;51.90;;;;;;5045492;28;20453;-78
2021/01/21 08:59:29;;;;;;;8.90;3.70;;;7.60;51.70;;;;;;5048000;28;20218;-77
2021/01/21 09:01:58;;;;;;;7.33;3.80;;;7.70;51.70;;;;;;5048318;28;20793;-77
2021/01/21 09:04:29;;;;;;;11.23;3.20;;;7.70;51.40;;;;;;5043779;28;20458;-79
2021/01/21 09:06:58;;;;;;;6.97;4.13;;;7.80;51.60;;;;;;5043816;28;20487;-78
2021/01/21 09:09:29;;;;;;;7.53;4.10;;;7.90;51.20;;;;;;5049260;28;20442;-75
2021/01/21 09:11:56;;;;;;;8.93;4.03;;;7.90;51.30;;;;;;5041371;28;20476;-77
2021/01/21 09:14:30;;;;;;;5.10;3.23;;;8.00;51.00;;;;;;5047812;28;20474;-76
2021/01/21 09:16:56;;;;;;;6.70;4.50;;;7.90;50.80;;;;;;5044374;28;20585;-76
2021/01/21 09:19:43;;;;;;;8.03;4.37;;;7.90;50.90;;;;;;5046183;28;20499;-75
2021/01/21 09:22:13;;;;;;;7.10;4.40;;;7.90;50.80;;;;;;5046159;28;20462;-77
2021/01/21 09:24:58;;;;;;;7.30;4.17;;;8.00;50.60;;;;;;5044284;28;20790;-75
2021/01/21 09:27:25;;;;;;;9.20;3.53;;;8.10;50.60;;;;;;5050330;28;20474;-76
2021/01/21 09:29:55;;;;;;;9.13;3.73;;;8.10;50.60;;;;;;5049753;28;20438;-75
2021/01/21 09:32:24;;;;;;;4.80;2.93;;;8.10;50.70;;;;;;5050002;28;20458;-75
2021/01/21 09:34:55;;;;;;;6.00;3.00;;;8.00;50.50;;;;;;5051574;28;20537;-77
2021/01/21 09:37:24;;;;;;;4.03;2.97;;;8.00;50.60;;;;;;5049372;28;20449;-81
2021/01/21 09:39:51;;;;;;;9.50;3.50;;;7.90;50.40;;;;;;5050914;28;20509;-73
2021/01/21 09:42:18;;;;;;;4.40;2.93;;;7.90;50.50;;;;;;5049209;28;20534;-74
2021/01/21 09:44:45;;;;;;;5.53;2.50;;;8.00;50.60;;;;;;5050938;28;20447;-76
2021/01/21 09:47:12;;;;;;;3.53;2.60;;;8.10;50.50;;;;;;5044632;28;20326;-75
2021/01/21 09:49:42;;;;;;;6.00;3.03;;;8.30;50.40;;;;;;5050874;28;20461;-74
2021/01/21 09:52:09;;;;;;;6.13;2.53;;;8.50;50.20;;;;;;5044672;28;20470;-75
2021/01/21 09:54:38;;;;;;;11.33;2.67;;;8.60;50.00;;;;;;5051571;28;20444;-80
2021/01/21 09:57:05;;;;;;;3.47;2.30;;;8.60;50.00;;;;;;5060740;28;20920;-77
2021/01/21 09:59:33;;;;;;;8.65;3.70;;;8.70;49.80;;;;;;5055145;28;20456;-79
2021/01/21 10:02:01;;;;;;;7.60;2.80;;;8.80;49.80;;;;;;5058531;28;20451;-78
2021/01/21 10:04:28;;;;;;;6.50;2.80;;;8.80;49.80;;;;;;5058635;28;20200;-77
2021/01/21 10:06:55;;;;;;;6.00;2.33;;;9.00;49.80;;;;;;5053324;28;20477;-78
2021/01/21 10:09:22;;;;;;;12.97;2.77;;;9.20;49.40;;;;;;5054277;28;20459;-78
2021/01/21 10:11:49;;;;;;;7.80;2.30;;;9.50;49.10;;;;;;5056986;28;20465;-77
2021/01/21 10:14:16;;;;;;;3.50;2.60;;;9.70;48.70;;;;;;5056136;28;20470;-77
2021/01/21 10:16:43;;;;;;;4.50;2.70;;;10.00;47.60;;;;;;5061768;28;20539;-78
2021/01/21 10:19:10;;;;;;;5.17;2.20;;;10.20;47.50;;;;;;5063456;28;20480;-78
2021/01/21 10:21:37;;;;;;;8.90;3.10;;;10.50;47.30;;;;;;5063118;28;20529;-79
2021/01/21 10:24:04;;;;;;;4.40;2.50;;;10.70;46.90;;;;;;5063546;28;20455;-78
2021/01/21 10:26:31;;;;;;;4.87;2.70;;;11.10;46.50;;;;;;5056710;28;20501;-78
2021/01/21 10:28:59;;;;;;;2.50;2.03;;;11.30;46.10;;;;;;5055498;28;20453;-77
2021/01/21 10:31:26;;;;;;;3.23;2.23;;;11.40;46.10;;;;;;5053477;28;20442;-79
2021/01/21 10:33:53;;;;;;;3.97;2.33;;;11.50;45.30;;;;;;5058431;28;20450;-79
2021/01/21 10:36:20;;;;;;;2.40;2.20;;;11.70;45.10;;;;;;5053553;28;20512;-79
2021/01/21 10:38:47;;;;;;;3.70;2.13;;;11.90;44.60;;;;;;5056655;28;21021;-79
2021/01/21 10:41:14;;;;;;;3.77;1.90;;;12.20;44.70;;;;;;5055805;28;20462;-79
2021/01/21 10:43:40;;;;;;;3.53;2.07;;;12.10;44.10;;;;;;5056061;28;21146;-77
2021/01/21 10:46:08;;;;;;;2.63;2.33;;;12.30;44.20;;;;;;5053368;28;20450;-79
2021/01/21 10:48:35;;;;;;;13.57;2.70;;;12.30;43.70;;;;;;5050722;28;20479;-79
2021/01/21 10:51:02;;;;;;;3.40;2.40;;;12.30;43.90;;;;;;5050484;28;20453;-81
2021/01/21 10:53:28;;;;;;;5.40;2.60;;;12.40;43.60;;;;;;5053384;28;20472;-78
2021/01/21 10:55:55;;;;;;;6.33;1.97;;;12.30;43.60;;;;;;5056709;28;20449;-79
2021/01/21 10:58:21;;;;;;;11.93;2.30;;;12.30;43.60;;;;;;5056330;28;21076;-79
2021/01/21 11:00:48;;;;;;;6.30;2.20;;;12.30;43.60;;;;;;5054185;28;20451;-79
2021/01/21 11:03:17;;;;;;;3.67;2.10;;;12.20;43.60;;;;;;5060512;28;20950;-82
2021/01/21 11:05:46;;;;;;;9.57;2.35;;;12.10;43.60;;;;;;5057721;28;20452;-80
2021/01/21 11:08:16;;;;;;;10.43;2.40;;;12.00;43.80;;;;;;5046915;28;20443;-76
2021/01/21 11:10:45;;;;;;;6.60;2.40;;;11.90;43.70;;;;;;5045193;28;20447;-78
2021/01/21 11:13:17;;;;;;;6.57;2.23;;;11.90;43.60;;;;;;5053611;28;20841;-78
2021/01/21 11:15:44;;;;;;;3.33;2.10;;;12.00;43.70;;;;;;5051555;28;20516;-79
2021/01/21 11:18:14;;;;;;;5.40;2.63;;;12.00;43.60;;;;;;5053308;28;20455;-79
2021/01/21 11:20:42;;;;;;;5.17;2.20;;;12.10;43.80;;;;;;5048776;28;20484;-79
2021/01/21 11:23:09;;;;;;;11.47;2.03;;;12.20;43.80;;;;;;5055687;28;20454;-79
2021/01/21 11:25:36;;;;;;;2.17;1.83;;;12.30;44.10;;;;;;5049489;28;20447;-78
2021/01/21 11:28:03;;;;;;;6.80;2.27;;;12.30;44.40;;;;;;5054238;28;20440;-79
2021/01/21 11:30:30;;;;;;;8.17;2.30;;;12.50;44.60;;;;;;5051683;28;20526;-79
2021/01/21 11:32:58;;;;;;;1.93;1.40;;;12.70;44.90;;;;;;5058469;28;20550;-81
2021/01/21 11:35:25;;;;;;;6.63;2.60;;;12.90;45.00;;;;;;5061496;28;20453;-81
2021/01/21 11:37:54;;;;;;;4.20;1.47;;;13.00;45.10;;;;;;5059110;28;20529;-80
2021/01/21 11:40:22;;;;;;;13.17;2.57;;;13.10;45.00;;;;;;5056693;28;20547;-80
2021/01/21 11:42:49;;;;;;;3.57;2.00;;;13.20;44.90;;;;;;5056531;28;20448;-75
2021/01/21 11:45:16;;;;;;;4.60;1.63;;;13.10;44.80;;;;;;5044802;28;20474;-79
2021/01/21 11:47:43;;;;;;;7.13;1.63;;;13.10;44.80;;;;;;5050014;28;20449;-79
2021/01/21 11:50:12;;;;;;;1.87;1.50;;;13.20;44.70;;;;;;5048616;28;20492;-78
2021/01/21 11:52:39;;;;;;;6.07;1.37;;;13.40;44.90;;;;;;5054477;28;20657;-79
2021/01/21 11:55:09;;;;;;;7.60;2.20;;;13.50;44.80;;;;;;5062317;28;20480;-79
2021/01/21 11:57:36;;;;;;;3.30;1.63;;;13.70;44.70;;;;;;5064854;28;20457;-79
2021/01/21 12:00:05;;;;;;;4.73;1.43;;;13.80;44.60;;;;;;5056465;28;20510;-79
2021/01/21 12:02:31;;;;;;;3.03;1.43;;;13.70;44.60;;;;;;5052536;28;20584;-78
2021/01/21 12:04:58;;;;;;;8.70;1.77;;;13.50;44.60;;;;;;5053644;28;20450;-78
2021/01/21 12:07:28;;;;;;;10.20;1.63;;;13.40;44.60;;;;;;5059384;28;20488;-78
2021/01/21 12:09:56;;;;;;;5.93;1.60;;;13.40;44.50;;;;;;5062550;28;20467;-78
2021/01/21 12:12:24;;;;;;;5.40;1.50;;;13.30;44.60;;;;;;5044413;28;20492;-78
2021/01/21 12:14:51;;;;;;;3.50;1.40;;;13.20;44.40;;;;;;5051910;28;20441;-79
2021/01/21 12:17:19;;;;;;;1.50;1.17;;;13.10;44.30;;;;;;5052377;28;20461;-79
2021/01/21 12:19:47;;;;;;;6.80;1.90;;;13.10;44.30;;;;;;5047632;28;20462;-78
2021/01/21 12:22:16;;;;;;;2.03;1.17;;;13.10;44.30;;;;;;5063863;28;20444;-78
2021/01/21 12:24:42;;;;;;;5.50;1.43;;;13.00;44.30;;;;;;5057076;28;20891;-78
2021/01/21 12:27:09;;;;;;;12.37;2.73;;;13.10;44.20;;;;;;5056875;28;20536;-78
2021/01/21 12:29:37;;;;;;;2.40;1.57;;;13.20;44.40;;;;;;5051638;28;20582;-78
2021/01/21 12:32:04;;;;;;;3.67;1.40;;;13.20;44.20;;;;;;5051487;28;20482;-78
2021/01/21 12:34:31;;;;;;;4.50;1.57;;;13.20;44.30;;;;;;5043983;28;20453;-78
2021/01/21 12:36:59;;;;;;;5.50;1.63;;;13.20;44.70;;;;;;5051213;28;20460;-78
2021/01/21 12:39:27;;;;;;;3.87;1.40;;;13.20;44.30;;;;;;5050805;28;20525;-79
2021/01/21 12:41:54;;;;;;;8.80;1.80;;;13.20;44.40;;;;;;5046567;28;20447;-78
2021/01/21 12:44:21;;;;;;;4.90;1.73;;;13.20;44.40;;;;;;5047840;28;20458;-78
2021/01/21 12:46:49;;;;;;;8.30;2.00;;;13.30;44.70;;;;;;5051210;28;20449;-78
2021/01/21 12:49:17;;;;;;;4.00;2.20;;;13.50;44.60;;;;;;5049819;28;20483;-78
2021/01/21 12:51:44;;;;;;;5.60;1.47;;;13.60;44.70;;;;;;5043713;28;20549;-78
2021/01/21 12:54:12;;;;;;;3.50;1.40;;;13.50;44.70;;;;;;5049557;28;21114;-78
2021/01/21 12:56:38;;;;;;;9.43;1.93;;;13.40;44.80;;;;;;5046034;28;20480;-78
2021/01/21 12:59:07;;;;;;;2.27;1.30;;;13.20;44.80;;;;;;5043637;28;20454;-81
2021/01/21 13:01:36;;;;;;;6.63;1.90;;;12.90;44.60;;;;;;5053869;28;20453;-78